createdAt,value
2018-02-22T00:00:52.113Z,101716.32
2018-02-22T00:03:19.699Z,101714.52
2018-02-22T00:05:47.235Z,101712.50
2018-02-22T00:08:14.798Z,101711.56
2018-02-22T00:10:42.332Z,101705.08
2018-02-22T00:13:09.869Z,101710.50
2018-02-22T00:15:37.419Z,101710.95
2018-02-22T00:18:04.987Z,101708.67
2018-02-22T00:20:32.539Z,101709.41
2018-02-22T00:23:00.088Z,101708.62
2018-02-22T00:25:28.412Z,101708.45
2018-02-22T00:27:55.965Z,101713.95
2018-02-22T00:30:23.521Z,101712.47
2018-02-22T00:32:51.094Z,101706.30
2018-02-22T00:35:18.646Z,101710.30
2018-02-22T00:37:46.209Z,101714.58
2018-02-22T00:40:13.732Z,101711.09
2018-02-22T00:42:41.310Z,101712.17
2018-02-22T00:45:08.871Z,101706.92
2018-02-22T00:47:36.393Z,101712.40
2018-02-22T00:50:03.923Z,101712.77
2018-02-22T00:52:31.463Z,101709.91
2018-02-22T00:54:59.074Z,101708.97
2018-02-22T00:57:26.614Z,101708.45
2018-02-22T00:59:54.209Z,101698.60
2018-02-22T01:02:21.776Z,101704.20
2018-02-22T01:04:49.317Z,101697.56
2018-02-22T01:07:16.891Z,101699.31
2018-02-22T01:09:44.496Z,101695.05
2018-02-22T01:12:12.039Z,101697.42
2018-02-22T01:14:39.574Z,101690.52
2018-02-22T01:17:07.151Z,101688.81
2018-02-22T01:19:34.708Z,101692.95
2018-02-22T02:02:10.632Z,101689.76
2018-02-22T02:04:38.186Z,101684.93
2018-02-22T02:07:05.723Z,101691.59
2018-02-22T02:09:33.243Z,101692.30
2018-02-22T02:12:00.853Z,101686.33
2018-02-22T02:14:28.370Z,101695.30
2018-02-22T02:16:55.930Z,101687.70
2018-02-22T03:17:02.941Z,101670.01
2018-02-22T03:19:30.494Z,101671.47
2018-02-22T03:21:58.074Z,101666.12
2018-02-22T03:24:25.570Z,101669.55
2018-02-22T03:58:30.030Z,101650.50
2018-02-22T04:00:57.540Z,101643.94
2018-02-22T04:03:25.081Z,101646.89
2018-02-22T04:05:53.914Z,101655.13
2018-02-22T04:08:21.433Z,101652.89
2018-02-22T04:10:48.925Z,101647.58
2018-02-22T04:13:16.516Z,101648.56
2018-02-22T04:15:44.093Z,101649.72
2018-02-22T04:18:11.586Z,101650.58
2018-02-22T04:20:39.103Z,101650.87
2018-02-22T04:23:06.601Z,101651.24
2018-02-22T04:25:34.152Z,101653.32
2018-02-22T04:28:01.714Z,101657.41
2018-02-22T04:30:29.232Z,101653.72
2018-02-22T04:32:56.815Z,101656.77
2018-02-22T04:35:24.431Z,101647.70
2018-02-22T04:37:52.011Z,101651.10
2018-02-22T04:40:19.584Z,101657.28
2018-02-22T04:42:47.104Z,101661.27
2018-02-22T04:45:14.832Z,101659.70
2018-02-22T04:47:42.389Z,101663.50
2018-02-22T04:50:09.900Z,101662.51
2018-02-22T04:52:37.458Z,101660.47
2018-02-22T04:55:04.969Z,101664.05
2018-02-22T04:57:32.573Z,101667.29
2018-02-22T05:00:00.116Z,101662.16
2018-02-22T05:02:28.470Z,101666.70
2018-02-22T05:04:56.008Z,101663.09
2018-02-22T05:07:23.547Z,101667.61
2018-02-22T05:09:51.085Z,101673.39
2018-02-22T05:12:18.637Z,101671.73
2018-02-22T05:14:46.185Z,101670.31
2018-02-22T05:17:13.690Z,101671.08
2018-02-22T05:19:41.200Z,101670.00
2018-02-22T05:22:08.764Z,101674.06
2018-02-22T05:24:36.296Z,101671.16
2018-02-22T05:27:03.904Z,101668.83
2018-02-22T05:29:31.434Z,101671.67
2018-02-22T05:31:58.933Z,101671.32
2018-02-22T05:34:26.509Z,101676.55
2018-02-22T05:36:54.165Z,101670.13
2018-02-22T05:39:21.863Z,101672.48
2018-02-22T05:41:49.613Z,101680.98
2018-02-22T05:44:17.165Z,101671.06
2018-02-22T05:46:44.666Z,101672.56
2018-02-22T05:49:12.158Z,101678.53
2018-02-22T05:51:39.684Z,101677.08
2018-02-22T05:54:08.110Z,101673.03
2018-02-22T05:56:35.616Z,101672.53
2018-02-22T05:59:05.270Z,101668.50
2018-02-22T06:01:32.789Z,101667.47
2018-02-22T06:04:00.333Z,101670.59
2018-02-22T06:06:27.837Z,101673.70
2018-02-22T06:08:55.386Z,101671.44
2018-02-22T06:11:22.929Z,101672.58
2018-02-22T06:13:50.552Z,101672.72
2018-02-22T06:16:18.046Z,101677.77
2018-02-22T06:18:45.601Z,101673.52
2018-02-22T06:21:13.111Z,101674.44
2018-02-22T06:23:40.673Z,101677.72
2018-02-22T06:26:08.220Z,101680.07
2018-02-22T06:28:35.797Z,101679.30
2018-02-22T06:31:03.320Z,101680.28
2018-02-22T06:33:36.489Z,101684.84
2018-02-22T06:36:04.161Z,101687.53
2018-02-22T06:38:31.713Z,101687.16
2018-02-22T06:40:59.273Z,101691.11
2018-02-22T06:43:27.178Z,101688.23
2018-02-22T06:45:54.818Z,101694.94
2018-02-22T06:48:22.461Z,101695.73
2018-02-22T06:50:50.030Z,101696.89
2018-02-22T06:53:17.569Z,101699.52
2018-02-22T06:55:45.098Z,101698.79
2018-02-22T06:58:12.659Z,101703.38
2018-02-22T07:00:40.228Z,101702.03
2018-02-22T07:03:07.824Z,101707.59
2018-02-22T07:05:35.379Z,101708.67
2018-02-22T07:08:03.069Z,101713.69
2018-02-22T07:10:30.616Z,101708.73
2018-02-22T07:12:59.501Z,101710.63
2018-02-22T07:15:27.054Z,101714.73
2018-02-22T07:17:54.605Z,101712.25
2018-02-22T07:20:24.738Z,101714.87
2018-02-22T07:22:52.305Z,101708.96
2018-02-22T07:25:19.826Z,101712.23
2018-02-22T07:27:47.427Z,101709.95
2018-02-22T07:30:15.031Z,101709.03
2018-02-22T07:32:42.563Z,101713.77
2018-02-22T07:35:10.118Z,101713.67
2018-02-22T07:37:37.693Z,101712.66
2018-02-22T07:40:05.285Z,101720.62
2018-02-22T07:42:32.778Z,101714.05
2018-02-22T07:45:00.294Z,101714.53
2018-02-22T07:47:27.820Z,101721.58
2018-02-22T07:49:55.406Z,101715.84
2018-02-22T07:52:22.919Z,101722.30
2018-02-22T07:54:50.441Z,101716.57
2018-02-22T07:57:18.005Z,101719.64
2018-02-22T07:59:45.506Z,101719.07
2018-02-22T08:02:13.007Z,101727.23
2018-02-22T08:04:40.536Z,101732.05
2018-02-22T08:07:08.059Z,101729.76
2018-02-22T08:09:35.557Z,101728.73
2018-02-22T08:12:03.075Z,101729.48
2018-02-22T08:14:30.651Z,101729.08
2018-02-22T08:16:58.187Z,101729.52
2018-02-22T08:19:25.717Z,101728.73
2018-02-22T08:21:53.214Z,101728.77
2018-02-22T08:24:20.733Z,101731.67
2018-02-22T08:26:48.254Z,101723.62
2018-02-22T08:29:15.803Z,101717.89
2018-02-22T08:31:43.328Z,101715.33
2018-02-22T08:34:10.866Z,101709.53
2018-02-22T08:36:38.376Z,101712.02
2018-02-22T08:39:05.903Z,101712.20
2018-02-22T08:41:33.420Z,101710.45
2018-02-22T08:44:00.940Z,101719.61
2018-02-22T08:46:28.497Z,101717.88
2018-02-22T08:48:56.009Z,101713.02
2018-02-22T08:51:23.612Z,101721.23
2018-02-22T08:53:51.127Z,101718.13
2018-02-22T08:56:18.648Z,101715.16
2018-02-22T08:58:46.145Z,101714.10
2018-02-22T09:01:13.684Z,101701.42
2018-02-22T09:03:41.202Z,101710.89
2018-02-22T09:06:08.713Z,101716.70
2018-02-22T09:08:36.238Z,101714.95
2018-02-22T09:11:03.759Z,101721.14
2018-02-22T09:13:31.282Z,101719.41
2018-02-22T09:15:58.776Z,101711.48
2018-02-22T09:18:26.290Z,101711.42
2018-02-22T09:20:53.813Z,101709.77
2018-02-22T09:23:21.323Z,101708.97
2018-02-22T09:25:48.822Z,101709.14
2018-02-22T09:28:16.342Z,101710.96
2018-02-22T09:30:43.868Z,101704.36
2018-02-22T09:33:11.364Z,101701.32
2018-02-22T09:35:38.873Z,101707.23
2018-02-22T09:38:06.378Z,101697.55
2018-02-22T09:40:33.954Z,101711.78
2018-02-22T09:43:01.466Z,101697.48
2018-02-22T09:45:28.990Z,101711.62
2018-02-22T09:47:56.515Z,101711.02
2018-02-22T09:50:24.058Z,101705.70
2018-02-22T09:52:51.566Z,101710.75
2018-02-22T09:55:19.081Z,101708.08
2018-02-22T09:57:46.633Z,101711.20
2018-02-22T10:00:14.197Z,101707.34
2018-02-22T10:02:41.742Z,101718.53
2018-02-22T10:05:09.268Z,101714.40
2018-02-22T10:07:36.781Z,101713.16
2018-02-22T10:10:04.343Z,101711.25
2018-02-22T10:12:32.037Z,101711.68
2018-02-22T10:14:59.581Z,101715.94
2018-02-22T10:17:27.070Z,101711.51
2018-02-22T10:19:54.587Z,101720.39
2018-02-22T10:22:22.104Z,101723.62
2018-02-22T10:24:49.602Z,101722.02
2018-02-22T10:27:17.152Z,101720.02
2018-02-22T10:29:44.659Z,101729.92
2018-02-22T10:32:12.170Z,101734.12
2018-02-22T10:34:39.693Z,101728.77
2018-02-22T10:37:07.207Z,101716.73
2018-02-22T10:39:34.736Z,101731.84
2018-02-22T10:42:02.262Z,101732.85
2018-02-22T10:44:29.781Z,101729.30
2018-02-22T10:46:57.320Z,101731.77
2018-02-22T10:49:24.833Z,101738.48
2018-02-22T10:51:52.340Z,101740.59
2018-02-22T10:54:19.819Z,101734.76
2018-02-22T10:56:47.349Z,101733.10
2018-02-22T10:59:14.840Z,101730.13
2018-02-22T11:01:47.920Z,101730.83
2018-02-22T11:04:15.417Z,101728.67
2018-02-22T11:06:42.936Z,101718.94
2018-02-22T11:09:10.448Z,101724.19
2018-02-22T11:11:37.949Z,101719.44
2018-02-22T11:14:05.504Z,101723.41
2018-02-22T11:16:33.087Z,101727.62
2018-02-22T11:19:00.622Z,101722.16
2018-02-22T11:21:28.134Z,101718.84
2018-02-22T11:23:55.657Z,101719.86
2018-02-22T11:26:23.199Z,101716.08
2018-02-22T11:28:50.713Z,101716.98
2018-02-22T11:31:18.217Z,101710.61
2018-02-22T11:33:45.782Z,101712.75
2018-02-22T11:36:13.326Z,101706.07
2018-02-22T11:38:40.855Z,101705.31
2018-02-22T11:41:08.410Z,101704.47
2018-02-22T11:43:35.975Z,101712.43
2018-02-22T11:46:03.536Z,101710.35
2018-02-22T11:48:31.065Z,101700.61
2018-02-22T11:50:58.647Z,101706.36
2018-02-22T11:53:26.187Z,101697.38
2018-02-22T11:55:53.749Z,101696.24
2018-02-22T11:58:21.277Z,101694.58
2018-02-22T12:00:48.843Z,101687.25
2018-02-22T12:03:16.368Z,101675.23
2018-02-22T12:05:43.892Z,101686.11
2018-02-22T12:08:11.415Z,101677.77
2018-02-22T12:10:38.925Z,101673.47
2018-02-22T12:13:06.426Z,101679.61
2018-02-22T12:15:33.917Z,101676.58
2018-02-22T12:18:01.446Z,101675.60
2018-02-22T12:20:28.963Z,101674.46
2018-02-22T12:22:56.485Z,101672.64
2018-02-22T12:25:24.049Z,101663.81
2018-02-22T12:27:51.581Z,101662.31
2018-02-22T12:30:19.102Z,101656.86
2018-02-22T12:32:46.668Z,101659.41
2018-02-22T12:35:14.168Z,101654.82
2018-02-22T12:37:41.722Z,101659.78
2018-02-22T12:40:09.236Z,101650.19
2018-02-22T12:42:36.758Z,101652.83
2018-02-22T12:45:04.292Z,101646.65
2018-02-22T12:47:31.848Z,101644.61
2018-02-22T12:49:59.408Z,101638.66
2018-02-22T12:52:26.912Z,101627.69
2018-02-22T12:54:54.482Z,101630.60
2018-02-22T12:57:22.009Z,101623.45
2018-02-22T12:59:49.573Z,101615.89
2018-02-22T13:02:17.080Z,101618.94
2018-02-22T13:04:44.604Z,101625.58
2018-02-22T13:07:12.160Z,101618.86
2018-02-22T13:09:39.709Z,101611.90
2018-02-22T13:12:07.269Z,101614.94
2018-02-22T13:14:34.750Z,101604.28
2018-02-22T13:17:02.279Z,101598.10
2018-02-22T13:19:29.793Z,101609.71
2018-02-22T13:21:57.311Z,101605.66
2018-02-22T13:24:24.852Z,101600.00
2018-02-22T13:26:52.389Z,101589.41
2018-02-22T13:29:21.720Z,101585.83
2018-02-22T13:31:49.265Z,101579.88
2018-02-22T13:34:24.113Z,101591.64
2018-02-22T13:36:51.602Z,101588.88
2018-02-22T13:39:19.465Z,101584.08
2018-02-22T13:41:47.059Z,101590.09
2018-02-22T13:44:26.381Z,101573.95
2018-02-22T13:46:53.919Z,101576.03
2018-02-22T13:49:33.031Z,101574.25
2018-02-22T13:52:00.575Z,101566.59
2018-02-22T13:54:28.062Z,101569.17
2018-02-22T13:57:07.313Z,101573.72
2018-02-22T13:59:34.856Z,101565.87
2018-02-22T14:02:14.157Z,101573.39
2018-02-22T14:04:41.658Z,101570.78
2018-02-22T14:07:09.205Z,101568.45
2018-02-22T14:09:36.737Z,101562.66
2018-02-22T14:12:04.266Z,101563.64
2018-02-22T14:14:31.785Z,101565.48
2018-02-22T14:16:59.319Z,101563.69
2018-02-22T14:19:26.814Z,101561.88
2018-02-22T14:21:54.422Z,101551.02
2018-02-22T14:24:21.935Z,101551.44
2018-02-22T14:26:49.518Z,101552.64
2018-02-22T14:29:17.032Z,101552.17
2018-02-22T14:31:44.537Z,101552.36
2018-02-22T14:34:12.077Z,101554.44
2018-02-22T14:36:39.736Z,101548.31
2018-02-22T14:39:07.253Z,101556.16
2018-02-22T14:41:34.810Z,101552.55
2018-02-22T14:44:02.306Z,101543.94
2018-02-22T14:46:29.831Z,101548.37
2018-02-22T14:48:57.332Z,101551.36
2018-02-22T14:51:24.843Z,101545.97
2018-02-22T14:53:52.325Z,101548.08
2018-02-22T14:56:19.853Z,101547.37
2018-02-22T14:58:47.424Z,101539.84
2018-02-22T15:01:14.963Z,101543.16
2018-02-22T15:03:42.465Z,101545.48
2018-02-22T15:06:09.951Z,101547.78
2018-02-22T15:08:37.505Z,101552.72
2018-02-22T15:11:05.032Z,101552.16
2018-02-22T15:13:32.536Z,101546.89
2018-02-22T15:16:00.088Z,101554.19
2018-02-22T15:18:27.633Z,101550.27
2018-02-22T15:20:55.148Z,101557.08
2018-02-22T15:23:22.632Z,101555.48
2018-02-22T15:25:57.149Z,101554.20
2018-02-22T15:28:24.633Z,101548.30
2018-02-22T15:30:52.180Z,101549.30
2018-02-22T15:33:19.684Z,101554.95
2018-02-22T15:35:47.194Z,101552.52
2018-02-22T15:38:14.682Z,101556.73
2018-02-22T15:40:42.229Z,101556.80
2018-02-22T15:43:09.772Z,101551.31
2018-02-22T15:45:37.326Z,101554.57
2018-02-22T15:48:04.836Z,101551.00
2018-02-22T15:50:32.361Z,101551.91
2018-02-22T15:52:59.904Z,101554.41
2018-02-22T15:55:27.461Z,101547.34
2018-02-22T15:57:54.963Z,101548.47
2018-02-22T16:00:22.534Z,101545.45
2018-02-22T16:02:50.072Z,101547.40
2018-02-22T16:05:17.594Z,101542.75
2018-02-22T16:07:45.090Z,101547.13
2018-02-22T16:10:12.581Z,101544.94
2018-02-22T16:12:40.164Z,101545.43
2018-02-22T16:15:07.653Z,101551.95
2018-02-22T16:17:35.229Z,101545.87
2018-02-22T16:20:03.609Z,101543.74
2018-02-22T16:22:31.163Z,101537.86
2018-02-22T16:24:58.754Z,101544.09
2018-02-22T16:27:26.277Z,101543.66
2018-02-22T16:29:53.842Z,101542.27
2018-02-22T16:32:21.377Z,101552.47
2018-02-22T16:34:49.078Z,101549.00
2018-02-22T16:37:16.711Z,101545.56
2018-02-22T16:39:45.394Z,101552.18
2018-02-22T16:42:13.067Z,101546.05
2018-02-22T16:44:40.610Z,101550.69
2018-02-22T16:47:08.344Z,101549.27
2018-02-22T16:49:35.906Z,101545.41
2018-02-22T16:52:03.602Z,101547.98
2018-02-22T16:54:31.296Z,101545.82
2018-02-22T16:57:01.076Z,101557.72
2018-02-22T16:59:28.594Z,101555.28
2018-02-22T17:01:56.128Z,101553.43
2018-02-22T17:04:23.666Z,101548.66
2018-02-22T17:06:51.256Z,101546.84
2018-02-22T17:09:18.813Z,101549.19
2018-02-22T17:11:46.506Z,101552.01
2018-02-22T17:14:14.076Z,101556.20
2018-02-22T17:16:41.566Z,101556.57
2018-02-22T17:19:09.085Z,101557.34
2018-02-22T17:21:36.673Z,101556.16
2018-02-22T17:24:04.258Z,101558.06
2018-02-22T17:26:37.394Z,101563.76
2018-02-22T17:29:10.362Z,101561.75
2018-02-22T17:31:43.601Z,101561.53
2018-02-22T17:34:11.221Z,101571.44
2018-02-22T17:36:57.478Z,101567.60
2018-02-22T17:39:28.033Z,101562.38
2018-02-22T17:41:55.569Z,101562.66
2018-02-22T17:44:23.079Z,101564.17
2018-02-22T17:46:51.728Z,101563.16
2018-02-22T17:49:19.337Z,101556.95
2018-02-22T17:51:46.913Z,101558.84
2018-02-22T17:54:14.480Z,101554.73
2018-02-22T17:56:41.984Z,101558.92
2018-02-22T17:59:09.646Z,101554.17
2018-02-22T18:01:37.297Z,101566.66
2018-02-22T18:04:04.825Z,101566.69
2018-02-22T18:06:32.579Z,101558.80
2018-02-22T18:09:00.274Z,101566.59
2018-02-22T18:11:29.207Z,101567.94
2018-02-22T18:13:56.780Z,101566.53
2018-02-22T18:16:24.376Z,101576.00
2018-02-22T18:18:51.924Z,101565.56
2018-02-22T18:21:19.449Z,101572.55
2018-02-22T18:23:46.986Z,101573.48
2018-02-22T18:26:14.531Z,101578.20
2018-02-22T18:28:44.237Z,101567.92
2018-02-22T18:31:11.786Z,101575.17
2018-02-22T18:33:39.429Z,101578.41
2018-02-22T18:36:06.964Z,101577.24
2018-02-22T18:38:40.231Z,101576.77
2018-02-22T18:41:07.731Z,101575.92
2018-02-22T18:43:41.114Z,101582.28
2018-02-22T18:46:08.668Z,101578.24
2018-02-22T18:48:36.232Z,101582.80
2018-02-22T18:51:03.776Z,101582.42
2018-02-22T18:53:31.365Z,101580.48
2018-02-22T18:55:58.930Z,101583.36
2018-02-22T18:58:26.448Z,101579.98
2018-02-22T19:00:53.969Z,101584.38
2018-02-22T19:03:21.500Z,101583.55
2018-02-22T19:05:49.105Z,101581.58
2018-02-22T19:08:16.657Z,101580.15
2018-02-22T19:10:44.155Z,101569.43
2018-02-22T19:13:11.689Z,101570.59
2018-02-22T19:15:39.237Z,101568.55
2018-02-22T19:18:06.742Z,101575.69
2018-02-22T19:20:34.257Z,101574.69
2018-02-22T19:23:01.838Z,101572.98
2018-02-22T19:25:29.439Z,101571.34
2018-02-22T19:27:57.043Z,101574.36
2018-02-22T19:30:24.609Z,101570.93
2018-02-22T19:32:52.164Z,101573.78
2018-02-22T19:35:19.761Z,101575.02
2018-02-22T19:37:47.272Z,101578.13
2018-02-22T19:40:14.782Z,101576.69
2018-02-22T19:42:42.291Z,101574.61
2018-02-22T19:45:09.795Z,101572.93
2018-02-22T19:47:37.314Z,101573.59
2018-02-22T19:50:04.830Z,101572.75
2018-02-22T19:52:32.368Z,101572.98
2018-02-22T19:54:59.884Z,101571.39
2018-02-22T19:57:27.447Z,101570.97
2018-02-22T19:59:54.981Z,101571.31
2018-02-22T20:02:22.524Z,101568.56
2018-02-22T20:04:50.033Z,101570.41
2018-02-22T20:07:17.560Z,101568.42
2018-02-22T20:09:45.047Z,101561.15
2018-02-22T20:12:12.567Z,101570.13
2018-02-22T20:14:40.069Z,101566.20
2018-02-22T20:17:07.631Z,101568.66
2018-02-22T20:19:35.124Z,101567.89
2018-02-22T20:22:02.654Z,101568.39
2018-02-22T20:24:30.173Z,101569.97
2018-02-22T20:26:57.724Z,101575.17
2018-02-22T20:29:25.237Z,101575.78
2018-02-22T20:31:52.745Z,101570.41
2018-02-22T20:34:20.304Z,101573.43
2018-02-22T20:36:47.914Z,101569.88
2018-02-22T20:39:16.234Z,101566.88
2018-02-22T20:41:43.737Z,101569.88
2018-02-22T20:44:11.339Z,101563.17
2018-02-22T20:46:38.920Z,101570.46
2018-02-22T20:49:06.443Z,101572.09
2018-02-22T20:51:36.916Z,101568.11
2018-02-22T20:54:04.527Z,101575.87
2018-02-22T20:56:32.076Z,101572.17
2018-02-22T20:58:59.574Z,101571.27
2018-02-22T21:01:27.133Z,101575.77
2018-02-22T21:03:54.651Z,101571.80
2018-02-22T21:06:22.393Z,101571.51
2018-02-22T21:08:49.895Z,101577.89
2018-02-22T21:11:18.216Z,101569.73
2018-02-22T21:13:45.808Z,101571.56
2018-02-22T21:16:13.440Z,101568.61
2018-02-22T21:18:40.975Z,101571.06
2018-02-22T21:21:08.500Z,101564.77
2018-02-22T21:23:36.071Z,101575.61
2018-02-22T21:26:03.768Z,101571.86
2018-02-22T21:28:31.289Z,101568.02
2018-02-22T21:30:58.780Z,101570.48
2018-02-22T21:33:26.497Z,101574.46
2018-02-22T21:35:54.024Z,101567.85
2018-02-22T21:38:21.523Z,101575.52
2018-02-22T21:40:49.296Z,101573.20
2018-02-22T21:43:16.954Z,101567.16
2018-02-22T21:45:44.639Z,101576.17
2018-02-22T21:48:12.503Z,101567.19
2018-02-22T21:50:40.037Z,101570.11
2018-02-22T21:53:07.639Z,101571.70
2018-02-22T21:55:35.273Z,101574.64
2018-02-22T21:58:02.934Z,101581.57
2018-02-22T22:00:30.414Z,101573.80
2018-02-22T22:02:58.253Z,101576.22
2018-02-22T22:05:26.136Z,101573.97
2018-02-22T22:07:53.739Z,101570.01
2018-02-22T22:10:21.236Z,101576.45
2018-02-22T22:12:48.752Z,101573.84
2018-02-22T22:15:16.250Z,101577.80
2018-02-22T22:17:43.811Z,101584.84
2018-02-22T22:20:11.318Z,101580.70
2018-02-22T22:22:38.843Z,101576.01
2018-02-22T22:25:06.381Z,101575.19
2018-02-22T22:27:34.122Z,101574.30
2018-02-22T22:30:01.639Z,101581.15
2018-02-22T22:32:29.166Z,101578.91
2018-02-22T22:34:56.675Z,101579.19
2018-02-22T22:37:24.396Z,101576.42
2018-02-22T22:39:51.943Z,101582.76
2018-02-22T22:42:19.486Z,101572.09
2018-02-22T22:44:46.993Z,101574.28
2018-02-22T22:47:14.550Z,101574.12
2018-02-22T22:49:43.606Z,101568.13
2018-02-22T22:52:11.176Z,101572.64
2018-02-22T22:54:39.456Z,101569.16
2018-02-22T22:57:06.983Z,101566.39
2018-02-22T22:59:34.482Z,101563.04
2018-02-22T23:02:02.036Z,101564.22
2018-02-22T23:04:29.659Z,101567.03
2018-02-22T23:06:57.158Z,101568.00
2018-02-22T23:09:24.893Z,101564.77
2018-02-22T23:11:52.584Z,101564.63
2018-02-22T23:14:20.168Z,101559.71
2018-02-22T23:16:48.148Z,101564.53
2018-02-22T23:19:15.837Z,101556.83
2018-02-22T23:21:43.366Z,101560.66
2018-02-22T23:24:10.909Z,101563.49
2018-02-22T23:26:38.482Z,101564.20
2018-02-22T23:29:06.016Z,101562.38
2018-02-22T23:31:33.567Z,101560.56
2018-02-22T23:34:01.136Z,101562.14
2018-02-22T23:36:28.666Z,101563.77
2018-02-22T23:38:57.088Z,101562.84
2018-02-22T23:41:30.261Z,101562.55
2018-02-22T23:43:57.785Z,101566.22
2018-02-22T23:46:25.299Z,101564.66
2018-02-22T23:48:52.818Z,101558.94
2018-02-22T23:51:20.327Z,101563.50
2018-02-22T23:53:47.854Z,101556.88
2018-02-22T23:56:15.377Z,101552.67
2018-02-22T23:58:42.976Z,101555.53
